NORTHEAST SUFFOLK  -  Winter Weather Advisory Winter Weather Advisory        NORTHERN NASSAU  -  Winter Weather Advisory Winter Weather Advisory        NORTHWEST SUFFOLK  -  Winter Weather Advisory Winter Weather Advisory        SOUTHEAST SUFFOLK  -  Winter Weather Advisory Winter Weather Advisory        SOUTHERN NASSAU  -  Winter Weather Advisory Winter Weather Advisory        SOUTHWEST SUFFOLK  -  Winter Weather Advisory Winter Weather Advisory      

Active alerts

Northern Nassau
  Details for Northern Nassau Winter Weather Advisory
Southern Nassau
  Details for Southern Nassau Winter Weather Advisory
Northwest Suffolk
  Details for Northwest Suffolk Winter Weather Advisory
Southwest Suffolk
  Details for Southwest Suffolk Winter Weather Advisory
Northeast Suffolk
  Details for Northeast Suffolk Winter Weather Advisory
Southeast Suffolk
  Details for Southeast Suffolk Winter Weather Advisory


WXM80 ListenWXM80 Stop

You find our weather info also at:

UK Metoffice

WeatherCloud

Weather Underground

Northeastern Weather Network

AWEKAS

Citizen Weather Observer Program (CWOP)

HAMweather, WeatherForYou, PWS Weather


Weather Underground History page Text

Daily Summary for February 23, 2017 Units:  English    Metric   Both
« Previous Day
Next Day »
Daily Weekly Monthly Yearly Custom
  High: Low: Average:
Temperature: 60.0 °F 37.9 °F 48 °F
Dew Point: 53.8 °F 36.6 °F 44.6 °F
Humidity: 96 % 73 % 88 %
Wind Speed: 6.0 mph 0.0 mph 1.4 mph
Wind Gust: 11.5 mph - -
Wind:- - SSW
Pressure: 29.89 in 29.76 in -
Precipitation: 0.00 in    
Historical Graphs
 
 
Tabular Data for February 23, 2017
Time Temperature Dew Point Pressure Wind Wind Speed Wind Gust Humidity Rainfall Rate (Hourly)
00:03 41.5 °F 39.3 °F 29.85 in West 0.2 mph 1.2 mph 92 % 0.00 in
00:08 41.5 °F 39.3 °F 29.85 in Calm     92 % 0.00 in
00:13 41.5 °F 39.3 °F 29.85 in Calm     92 % 0.00 in
00:18 41.5 °F 39.3 °F 29.86 in Calm     92 % 0.00 in
00:23 41.5 °F 39.6 °F 29.86 in Calm     93 % 0.00 in
00:28 41.5 °F 39.6 °F 29.86 in Calm     93 % 0.00 in
00:33 41.4 °F 39.3 °F 29.86 in Calm     92 % 0.00 in
00:38 41.2 °F 39.1 °F 29.86 in Calm     92 % 0.00 in
00:43 41.1 °F 39.0 °F 29.86 in Calm     92 % 0.00 in
00:48 40.9 °F 38.8 °F 29.86 in Calm     92 % 0.00 in
00:54 40.7 °F 38.6 °F 29.86 in Calm     92 % 0.00 in
00:59 40.5 °F 38.1 °F 29.86 in Calm     91 % 0.00 in
01:04 40.2 °F 37.8 °F 29.86 in Calm     91 % 0.00 in
01:09 40.0 °F 37.6 °F 29.86 in Calm     91 % 0.00 in
01:14 39.8 °F 37.4 °F 29.86 in Calm     91 % 0.00 in
01:19 39.6 °F 37.2 °F 29.87 in Calm     91 % 0.00 in
01:24 39.5 °F 37.1 °F 29.87 in Calm     91 % 0.00 in
01:29 39.4 °F 37.0 °F 29.87 in Calm     91 % 0.00 in
01:34 39.3 °F 36.9 °F 29.87 in Calm     91 % 0.00 in
01:39 39.2 °F 37.1 °F 29.87 in Calm     92 % 0.00 in
01:44 39.1 °F 36.7 °F 29.87 in West 0.2 mph 1.2 mph 91 % 0.00 in
01:49 39.1 °F 37.0 °F 29.86 in West 1.2 mph 2.0 mph 92 % 0.00 in
01:54 39.0 °F 36.9 °F 29.86 in West 0.5 mph 2.3 mph 92 % 0.00 in
01:59 39.1 °F 37.0 °F 29.86 in West 0.1 mph 1.2 mph 92 % 0.00 in
02:04 39.1 °F 37.2 °F 29.86 in West 0.6 mph 2.3 mph 93 % 0.00 in
02:09 39.1 °F 37.2 °F 29.86 in West 0.7 mph 2.3 mph 93 % 0.00 in
02:14 39.2 °F 37.3 °F 29.86 in West 0.3 mph 2.3 mph 93 % 0.00 in
02:19 39.2 °F 37.3 °F 29.86 in West 0.4 mph 2.3 mph 93 % 0.00 in
02:24 39.4 °F 37.8 °F 29.86 in Calm   1.2 mph 94 % 0.00 in
02:29 39.5 °F 37.9 °F 29.86 in Calm   1.2 mph 94 % 0.00 in
02:34 39.6 °F 38.0 °F 29.86 in West 0.1 mph 1.2 mph 94 % 0.00 in
02:39 39.7 °F 38.1 °F 29.86 in West 1.0 mph 2.3 mph 94 % 0.00 in
02:44 39.8 °F 38.2 °F 29.86 in West 0.2 mph 1.2 mph 94 % 0.00 in
02:49 39.8 °F 38.2 °F 29.86 in West 0.4 mph 1.2 mph 94 % 0.00 in
02:55 39.9 °F 38.3 °F 29.86 in West 0.4 mph 2.3 mph 94 % 0.00 in
03:00 39.9 °F 38.3 °F 29.86 in West 1.2 mph 2.3 mph 94 % 0.00 in
03:05 40.0 °F 38.4 °F 29.85 in West 0.7 mph 2.3 mph 94 % 0.00 in
03:10 40.0 °F 38.4 °F 29.85 in West 1.2 mph 2.3 mph 94 % 0.00 in
03:15 40.1 °F 38.5 °F 29.85 in West 1.4 mph 2.3 mph 94 % 0.00 in
03:20 40.1 °F 38.8 °F 29.85 in West 1.4 mph 3.5 mph 95 % 0.00 in
03:25 40.2 °F 38.9 °F 29.85 in West 0.4 mph 2.3 mph 95 % 0.00 in
03:31 40.3 °F 39.0 °F 29.85 in West 0.1 mph 1.2 mph 95 % 0.00 in
03:36 40.3 °F 39.0 °F 29.85 in West 0.4 mph 2.3 mph 95 % 0.00 in
03:41 40.4 °F 39.1 °F 29.85 in Calm     95 % 0.00 in
03:46 40.4 °F 39.1 °F 29.85 in Calm   1.2 mph 95 % 0.00 in
03:51 40.3 °F 39.0 °F 29.85 in Calm   1.2 mph 95 % 0.00 in
03:56 40.3 °F 39.0 °F 29.86 in Calm   1.2 mph 95 % 0.00 in
04:01 40.2 °F 38.9 °F 29.86 in Calm     95 % 0.00 in
04:06 40.1 °F 38.8 °F 29.86 in Calm     95 % 0.00 in
04:11 40.0 °F 38.4 °F 29.86 in West 0.9 mph 1.2 mph 94 % 0.00 in
04:16 40.0 °F 38.4 °F 29.86 in West 0.3 mph 1.2 mph 94 % 0.00 in
04:21 39.9 °F 38.3 °F 29.85 in Calm     94 % 0.00 in
04:26 39.8 °F 38.2 °F 29.85 in Calm     94 % 0.00 in
04:31 39.7 °F 38.1 °F 29.85 in Calm     94 % 0.00 in
04:36 39.6 °F 38.0 °F 29.85 in Calm     94 % 0.00 in
04:41 39.5 °F 37.9 °F 29.85 in West 0.1 mph 1.2 mph 94 % 0.00 in
04:46 39.3 °F 37.7 °F 29.85 in Calm     94 % 0.00 in
04:51 39.2 °F 37.6 °F 29.86 in West 0.4 mph 2.3 mph 94 % 0.00 in
04:56 39.1 °F 37.5 °F 29.85 in Calm     94 % 0.00 in
05:01 39.1 °F 37.5 °F 29.85 in Calm     94 % 0.00 in
05:06 39.1 °F 37.5 °F 29.85 in West 0.6 mph 2.3 mph 94 % 0.00 in
05:07 39.0 °F 37.4 °F 29.85 in Calm   2.3 mph 94 % 0.00 in
05:12 39.0 °F 37.4 °F 29.85 in Calm   1.2 mph 94 % 0.00 in
05:17 38.8 °F 37.2 °F 29.85 in Calm   1.2 mph 94 % 0.00 in
05:22 38.8 °F 37.2 °F 29.85 in West 0.2 mph 1.2 mph 94 % 0.00 in
05:27 38.7 °F 37.1 °F 29.85 in Calm     94 % 0.00 in
05:32 38.7 °F 37.1 °F 29.85 in Calm   1.2 mph 94 % 0.00 in
05:37 38.7 °F 37.1 °F 29.85 in Calm     94 % 0.00 in
05:42 38.7 °F 37.4 °F 29.85 in Calm     95 % 0.00 in
05:47 38.7 °F 37.4 °F 29.85 in Calm     95 % 0.00 in
05:52 38.7 °F 37.4 °F 29.85 in Calm   1.2 mph 95 % 0.00 in
05:57 38.6 °F 37.3 °F 29.85 in Calm     95 % 0.00 in
06:02 38.6 °F 37.3 °F 29.85 in Calm     95 % 0.00 in
06:07 38.5 °F 37.2 °F 29.85 in Calm     95 % 0.00 in
06:12 38.4 °F 37.1 °F 29.86 in Calm   1.2 mph 95 % 0.00 in
06:17 38.3 °F 37.0 °F 29.86 in Calm     95 % 0.00 in
06:22 38.2 °F 36.9 °F 29.86 in Calm     95 % 0.00 in
06:28 38.2 °F 36.9 °F 29.86 in Calm     95 % 0.00 in
06:33 38.1 °F 36.8 °F 29.86 in West 0.2 mph 1.0 mph 95 % 0.00 in
06:38 38.0 °F 36.7 °F 29.86 in Calm     95 % 0.00 in
06:43 38.0 °F 36.7 °F 29.86 in Calm     95 % 0.00 in
06:48 38.0 °F 36.7 °F 29.86 in Calm     95 % 0.00 in
06:53 38.0 °F 36.7 °F 29.86 in Calm     95 % 0.00 in
06:58 37.9 °F 36.6 °F 29.86 in Calm     95 % 0.00 in
07:03 37.9 °F 36.6 °F 29.86 in Calm     95 % 0.00 in
07:08 37.9 °F 36.6 °F 29.86 in Calm     95 % 0.00 in
07:13 37.9 °F 36.6 °F 29.86 in Calm     95 % 0.00 in
07:18 37.9 °F 36.6 °F 29.86 in Calm     95 % 0.00 in
07:23 37.9 °F 36.6 °F 29.86 in Calm     95 % 0.00 in
07:28 38.0 °F 36.7 °F 29.87 in Calm     95 % 0.00 in
07:33 38.1 °F 36.8 °F 29.87 in Calm     95 % 0.00 in
07:38 38.2 °F 36.9 °F 29.87 in Calm     95 % 0.00 in
07:43 38.4 °F 37.1 °F 29.87 in Calm     95 % 0.00 in
07:48 38.6 °F 37.3 °F 29.88 in Calm     95 % 0.00 in
07:53 38.9 °F 37.8 °F 29.88 in Calm   1.0 mph 96 % 0.00 in
07:58 39.3 °F 38.3 °F 29.88 in Calm     96 % 0.00 in
08:03 39.9 °F 38.9 °F 29.88 in Calm   1.2 mph 96 % 0.00 in
08:08 40.4 °F 39.4 °F 29.88 in West 0.7 mph 3.5 mph 96 % 0.00 in
08:13 40.9 °F 39.8 °F 29.88 in WNW 1.3 mph 3.5 mph 96 % 0.00 in
08:18 41.2 °F 40.1 °F 29.88 in WNW 2.3 mph 3.5 mph 96 % 0.00 in
08:23 41.5 °F 40.4 °F 29.88 in WNW 2.1 mph 3.5 mph 96 % 0.00 in
08:28 41.8 °F 40.7 °F 29.89 in WNW 2.4 mph 3.5 mph 96 % 0.00 in
08:33 41.9 °F 40.8 °F 29.89 in WNW 1.6 mph 3.5 mph 96 % 0.00 in
08:38 42.1 °F 41.0 °F 29.89 in West 1.2 mph 3.5 mph 96 % 0.00 in
08:43 42.4 °F 41.3 °F 29.88 in West 1.1 mph 3.5 mph 96 % 0.00 in
08:49 42.8 °F 41.7 °F 29.89 in WNW 1.3 mph 3.0 mph 96 % 0.00 in
08:54 43.1 °F 42.0 °F 29.89 in WNW 2.6 mph 4.0 mph 96 % 0.00 in
08:59 43.3 °F 42.2 °F 29.89 in WNW 1.1 mph 2.0 mph 96 % 0.00 in
09:04 43.3 °F 42.2 °F 29.89 in NW 2.9 mph 3.5 mph 96 % 0.00 in
09:09 43.2 °F 41.9 °F 29.88 in NW 1.3 mph 2.3 mph 95 % 0.00 in
09:14 43.1 °F 41.8 °F 29.89 in NW 0.2 mph 2.0 mph 95 % 0.00 in
09:19 43.2 °F 41.9 °F 29.89 in NW 0.1 mph 2.3 mph 95 % 0.00 in
09:24 43.2 °F 41.9 °F 29.89 in Calm   1.2 mph 95 % 0.00 in
09:29 43.3 °F 42.0 °F 29.89 in Calm     95 % 0.00 in
09:34 43.3 °F 41.7 °F 29.89 in Calm   1.2 mph 94 % 0.00 in
09:39 43.3 °F 41.7 °F 29.89 in Calm     94 % 0.00 in
09:44 43.3 °F 41.4 °F 29.89 in Calm     93 % 0.00 in
09:49 43.5 °F 41.6 °F 29.89 in Calm     93 % 0.00 in
09:54 43.7 °F 41.8 °F 29.89 in NNW 1.6 mph 3.5 mph 93 % 0.00 in
09:59 43.8 °F 41.9 °F 29.89 in NNW 1.0 mph 3.5 mph 93 % 0.00 in
10:04 44.0 °F 41.8 °F 29.88 in NNW 0.3 mph 2.3 mph 92 % 0.00 in
10:09 44.1 °F 41.9 °F 29.89 in NNW 1.3 mph 2.3 mph 92 % 0.00 in
10:14 44.2 °F 41.7 °F 29.88 in Calm   1.2 mph 91 % 0.00 in
10:19 44.3 °F 41.8 °F 29.88 in North 1.1 mph 2.3 mph 91 % 0.00 in
10:24 44.1 °F 41.4 °F 29.88 in North 1.0 mph 2.3 mph 90 % 0.00 in
10:29 44.1 °F 41.1 °F 29.88 in NNE 0.7 mph 2.3 mph 89 % 0.00 in
10:34 44.1 °F 41.4 °F 29.88 in NNE 0.3 mph 2.0 mph 90 % 0.00 in
10:39 44.0 °F 41.0 °F 29.87 in Calm     89 % 0.00 in
10:45 44.1 °F 41.4 °F 29.87 in Calm     90 % 0.00 in
10:50 44.3 °F 41.6 °F 29.87 in Calm     90 % 0.00 in
10:55 44.7 °F 42.2 °F 29.86 in Calm     91 % 0.00 in
11:00 45.1 °F 42.6 °F 29.86 in NNE 0.2 mph 1.2 mph 91 % 0.00 in
11:05 45.7 °F 43.5 °F 29.85 in NNE 0.4 mph 2.3 mph 92 % 0.00 in
11:10 46.4 °F 43.6 °F 29.85 in NNE 1.8 mph 3.5 mph 90 % 0.00 in
11:15 46.8 °F 43.7 °F 29.85 in NE 2.2 mph 3.5 mph 89 % 0.00 in
11:20 47.8 °F 45.0 °F 29.84 in NNE 1.4 mph 4.0 mph 90 % 0.00 in
11:25 48.4 °F 45.3 °F 29.84 in WSW 1.0 mph 4.6 mph 89 % 0.00 in
11:30 49.3 °F 46.5 °F 29.84 in SW 1.2 mph 4.6 mph 90 % 0.00 in
11:35 50.6 °F 48.1 °F 29.84 in NNE 2.8 mph 4.0 mph 91 % 0.00 in
11:40 50.9 °F 46.9 °F 29.84 in North 1.6 mph 3.5 mph 86 % 0.00 in
11:45 51.4 °F 46.7 °F 29.83 in North 1.1 mph 3.5 mph 84 % 0.00 in
11:50 51.5 °F 45.2 °F 29.83 in ENE 1.0 mph 3.5 mph 79 % 0.00 in
11:55 51.1 °F 44.8 °F 29.84 in NE 1.4 mph 2.3 mph 79 % 0.00 in
12:00 50.5 °F 44.2 °F 29.83 in NE 0.8 mph 2.3 mph 79 % 0.00 in
12:05 49.9 °F 44.0 °F 29.83 in ENE 2.4 mph 3.5 mph 80 % 0.00 in
12:10 49.9 °F 44.6 °F 29.83 in NNE 1.0 mph 2.3 mph 82 % 0.00 in
12:15 49.8 °F 44.5 °F 29.83 in NE 0.7 mph 2.3 mph 82 % 0.00 in
12:20 50.0 °F 44.7 °F 29.83 in NE 1.9 mph 3.5 mph 82 % 0.00 in
12:26 49.8 °F 44.5 °F 29.83 in NE 0.3 mph 1.2 mph 82 % 0.00 in
12:31 50.3 °F 45.6 °F 29.82 in North 3.0 mph 4.6 mph 84 % 0.00 in
12:36 50.9 °F 45.9 °F 29.83 in WNW 2.7 mph 4.6 mph 83 % 0.00 in
12:41 51.1 °F 45.5 °F 29.83 in NW 1.8 mph 2.3 mph 81 % 0.00 in
12:46 51.6 °F 46.0 °F 29.82 in NW 2.2 mph 3.5 mph 81 % 0.00 in
12:51 52.2 °F 47.2 °F 29.82 in NW 0.1 mph 1.2 mph 83 % 0.00 in
12:56 53.0 °F 46.7 °F 29.82 in ENE 2.2 mph 3.5 mph 79 % 0.00 in
13:01 52.6 °F 45.9 °F 29.81 in ENE 2.3 mph 3.5 mph 78 % 0.00 in
13:06 52.6 °F 46.9 °F 29.81 in NE 2.1 mph 3.5 mph 81 % 0.00 in
13:11 52.4 °F 46.1 °F 29.81 in ENE 2.2 mph 4.0 mph 79 % 0.00 in
13:16 52.0 °F 46.0 °F 29.80 in ENE 1.8 mph 3.5 mph 80 % 0.00 in
13:21 52.4 °F 47.1 °F 29.80 in NE 1.3 mph 3.0 mph 82 % 0.00 in
13:26 52.8 °F 47.5 °F 29.79 in NNE 2.0 mph 3.5 mph 82 % 0.00 in
13:31 53.6 °F 48.2 °F 29.79 in North 2.9 mph 3.5 mph 82 % 0.00 in
13:37 53.9 °F 47.9 °F 29.79 in NNE 2.9 mph 4.6 mph 80 % 0.00 in
13:42 54.3 °F 47.6 °F 29.79 in NNE 3.6 mph 5.0 mph 78 % 0.00 in
13:47 54.6 °F 47.5 °F 29.79 in NNE 1.9 mph 3.5 mph 77 % 0.00 in
13:52 54.9 °F 47.1 °F 29.79 in NNE 4.5 mph 5.8 mph 75 % 0.00 in
13:57 55.1 °F 48.0 °F 29.79 in NNE 1.6 mph 3.5 mph 77 % 0.00 in
14:02 55.3 °F 47.5 °F 29.79 in NE 1.9 mph 3.5 mph 75 % 0.00 in
14:07 55.2 °F 47.8 °F 29.79 in NE 1.3 mph 3.5 mph 76 % 0.00 in
14:12 55.1 °F 47.3 °F 29.79 in NNE 3.7 mph 6.0 mph 75 % 0.00 in
14:17 55.0 °F 47.2 °F 29.79 in NNE 0.9 mph 3.5 mph 75 % 0.00 in
14:22 55.2 °F 48.8 °F 29.78 in SW 3.7 mph 5.8 mph 79 % 0.00 in
14:27 55.8 °F 49.4 °F 29.78 in South 3.4 mph 6.9 mph 79 % 0.00 in
14:32 56.6 °F 51.2 °F 29.78 in West 1.4 mph 5.8 mph 82 % 0.00 in
14:37 56.8 °F 48.6 °F 29.78 in NE 1.9 mph 3.5 mph 74 % 0.00 in
14:42 56.5 °F 47.9 °F 29.78 in NNE 1.6 mph 3.5 mph 73 % 0.00 in
14:47 56.2 °F 48.0 °F 29.78 in NE 2.2 mph 3.5 mph 74 % 0.00 in
14:52 55.2 °F 47.1 °F 29.78 in NE 0.4 mph 2.3 mph 74 % 0.00 in
14:57 54.3 °F 46.5 °F 29.78 in NE 1.3 mph 2.3 mph 75 % 0.00 in
15:02 53.8 °F 46.8 °F 29.77 in NE 0.3 mph 2.3 mph 77 % 0.00 in
15:08 53.6 °F 47.9 °F 29.76 in South 5.1 mph 6.9 mph 81 % 0.00 in
15:13 54.7 °F 51.2 °F 29.77 in SSW 3.5 mph 6.9 mph 88 % 0.00 in
15:18 55.7 °F 51.9 °F 29.78 in SSW 4.1 mph 5.8 mph 87 % 0.00 in
15:23 56.7 °F 52.9 °F 29.78 in South 4.4 mph 7.0 mph 87 % 0.00 in
15:28 57.7 °F 52.9 °F 29.78 in South 3.9 mph 6.9 mph 84 % 0.00 in
15:33 58.2 °F 53.1 °F 29.77 in SSW 2.4 mph 6.0 mph 83 % 0.00 in
15:38 59.0 °F 53.5 °F 29.77 in South 2.7 mph 3.5 mph 82 % 0.00 in
15:44 59.3 °F 53.5 °F 29.77 in SSW 1.4 mph 5.0 mph 81 % 0.00 in
15:49 59.6 °F 53.4 °F 29.77 in SSW 0.5 mph 2.3 mph 80 % 0.00 in
15:54 59.8 °F 53.6 °F 29.77 in SSW 4.3 mph 5.0 mph 80 % 0.00 in
15:59 60.0 °F 53.8 °F 29.78 in SW 3.6 mph 6.0 mph 80 % 0.00 in
16:04 60.0 °F 53.5 °F 29.78 in South 4.3 mph 6.0 mph 79 % 0.00 in
16:09 59.9 °F 53.0 °F 29.78 in SSW 5.9 mph 8.1 mph 78 % 0.00 in
16:14 59.7 °F 52.8 °F 29.79 in South 5.4 mph 6.9 mph 78 % 0.00 in
16:19 59.4 °F 52.9 °F 29.79 in SSW 6.0 mph 9.0 mph 79 % 0.00 in
16:24 59.1 °F 52.6 °F 29.79 in SSW 6.0 mph 9.2 mph 79 % 0.00 in
16:29 58.9 °F 52.7 °F 29.79 in SW 5.5 mph 10.4 mph 80 % 0.00 in
16:34 58.7 °F 52.5 °F 29.80 in SW 2.7 mph 5.8 mph 80 % 0.00 in
16:39 58.5 °F 52.4 °F 29.80 in South 5.8 mph 8.1 mph 80 % 0.00 in
16:44 58.3 °F 52.5 °F 29.80 in SSW 4.1 mph 9.2 mph 81 % 0.00 in
16:49 58.1 °F 52.3 °F 29.80 in SW 3.6 mph 11.5 mph 81 % 0.00 in
16:54 57.9 °F 52.4 °F 29.80 in SW 4.0 mph 8.1 mph 82 % 0.00 in
16:59 57.8 °F 52.3 °F 29.80 in SSW 3.3 mph 4.6 mph 82 % 0.00 in
17:04 57.6 °F 52.1 °F 29.80 in SSW 3.6 mph 5.8 mph 82 % 0.00 in
17:09 57.5 °F 52.4 °F 29.80 in SSW 2.7 mph 3.5 mph 83 % 0.00 in
17:14 57.4 °F 52.3 °F 29.80 in SSW 2.2 mph 4.6 mph 83 % 0.00 in
17:20 57.2 °F 52.4 °F 29.80 in South 0.5 mph 2.0 mph 84 % 0.00 in
17:25 57.1 °F 52.3 °F 29.80 in South 2.8 mph 6.9 mph 84 % 0.00 in
17:30 57.0 °F 52.2 °F 29.80 in South 2.2 mph 3.5 mph 84 % 0.00 in
17:35 56.9 °F 52.1 °F 29.81 in SSW 3.8 mph 5.8 mph 84 % 0.00 in
17:40 56.8 °F 52.0 °F 29.80 in SW 2.4 mph 3.5 mph 84 % 0.00 in
17:45 56.7 °F 52.2 °F 29.81 in SSW 3.7 mph 5.8 mph 85 % 0.00 in
17:50 56.6 °F 52.1 °F 29.81 in SW 5.6 mph 7.0 mph 85 % 0.00 in
17:55 56.6 °F 52.1 °F 29.82 in SSW 4.2 mph 7.0 mph 85 % 0.00 in
18:00 56.5 °F 52.0 °F 29.82 in SSW 4.2 mph 6.9 mph 85 % 0.00 in
18:05 56.4 °F 51.9 °F 29.82 in South 5.2 mph 6.9 mph 85 % 0.00 in
18:10 56.3 °F 51.8 °F 29.82 in SSW 4.6 mph 6.9 mph 85 % 0.00 in
18:15 56.2 °F 51.7 °F 29.82 in South 3.6 mph 6.9 mph 85 % 0.00 in
18:20 56.1 °F 51.7 °F 29.82 in SSW 3.4 mph 6.9 mph 85 % 0.00 in
18:25 56.0 °F 51.6 °F 29.82 in SSW 1.3 mph 6.9 mph 85 % 0.00 in
18:30 55.9 °F 51.5 °F 29.83 in SW 1.8 mph 5.8 mph 85 % 0.00 in
18:35 55.8 °F 51.4 °F 29.83 in WSW 2.5 mph 5.8 mph 85 % 0.00 in
18:40 55.7 °F 51.3 °F 29.84 in West 2.6 mph 3.5 mph 85 % 0.00 in
18:45 55.7 °F 51.3 °F 29.84 in West 2.8 mph 3.5 mph 85 % 0.00 in
18:50 55.6 °F 51.2 °F 29.84 in West 2.5 mph 4.6 mph 85 % 0.00 in
18:55 55.4 °F 51.0 °F 29.84 in SW 2.2 mph 4.0 mph 85 % 0.00 in
19:00 55.3 °F 50.9 °F 29.84 in WSW 2.5 mph 3.5 mph 85 % 0.00 in
19:05 55.1 °F 51.0 °F 29.84 in SW 1.7 mph 3.5 mph 86 % 0.00 in
19:10 55.0 °F 50.6 °F 29.84 in SW 1.8 mph 3.5 mph 85 % 0.00 in
19:15 54.8 °F 50.7 °F 29.84 in SSW 2.7 mph 4.0 mph 86 % 0.00 in
19:21 54.7 °F 50.6 °F 29.84 in South 1.6 mph 3.5 mph 86 % 0.00 in
19:26 54.5 °F 50.4 °F 29.84 in WSW 1.3 mph 3.5 mph 86 % 0.00 in
19:31 54.5 °F 50.4 °F 29.84 in South 2.6 mph 3.5 mph 86 % 0.00 in
19:36 54.4 °F 50.3 °F 29.84 in SSW 2.2 mph 3.5 mph 86 % 0.00 in
19:41 54.3 °F 50.2 °F 29.83 in SSW 2.0 mph 3.5 mph 86 % 0.00 in
19:46 54.2 °F 50.4 °F 29.83 in SSW 2.2 mph 3.5 mph 87 % 0.00 in
19:51 54.2 °F 50.4 °F 29.83 in South 1.4 mph 3.5 mph 87 % 0.00 in
19:56 54.2 °F 50.4 °F 29.83 in SW 0.6 mph 3.5 mph 87 % 0.00 in
20:01 54.2 °F 50.4 °F 29.83 in SSW 0.9 mph 4.6 mph 87 % 0.00 in
20:06 54.2 °F 50.4 °F 29.83 in West 1.5 mph 3.5 mph 87 % 0.00 in
20:11 54.3 °F 50.8 °F 29.84 in SW 1.6 mph 3.0 mph 88 % 0.00 in
20:16 54.3 °F 50.8 °F 29.83 in SW 3.3 mph 4.6 mph 88 % 0.00 in
20:21 54.4 °F 50.9 °F 29.83 in SW 1.3 mph 3.0 mph 88 % 0.00 in
20:26 54.5 °F 51.0 °F 29.84 in WSW 1.4 mph 3.5 mph 88 % 0.00 in
20:31 54.5 °F 50.7 °F 29.84 in WSW 1.7 mph 6.9 mph 87 % 0.00 in
20:36 54.6 °F 50.8 °F 29.84 in SSW 2.8 mph 4.6 mph 87 % 0.00 in
20:41 54.7 °F 50.9 °F 29.84 in SW 2.8 mph 4.6 mph 87 % 0.00 in
20:46 54.8 °F 51.0 °F 29.84 in SW 3.3 mph 5.8 mph 87 % 0.00 in
20:51 54.9 °F 51.1 °F 29.85 in SSW 4.8 mph 5.8 mph 87 % 0.00 in
20:56 55.0 °F 51.2 °F 29.85 in SW 2.5 mph 3.5 mph 87 % 0.00 in
21:01 55.1 °F 51.3 °F 29.85 in SW 1.2 mph 3.5 mph 87 % 0.00 in
21:06 55.2 °F 51.4 °F 29.85 in SW 2.2 mph 4.6 mph 87 % 0.00 in
21:11 55.4 °F 51.6 °F 29.85 in WNW 0.4 mph 2.3 mph 87 % 0.00 in
21:16 55.5 °F 51.4 °F 29.86 in Calm   2.3 mph 86 % 0.00 in
21:21 55.5 °F 51.1 °F 29.86 in WSW 0.2 mph 1.2 mph 85 % 0.00 in
21:27 55.4 °F 51.0 °F 29.85 in WSW 0.9 mph 2.3 mph 85 % 0.00 in
21:32 55.4 °F 50.6 °F 29.86 in WSW 0.8 mph 2.0 mph 84 % 0.00 in
21:37 55.2 °F 50.4 °F 29.86 in West 1.0 mph 2.3 mph 84 % 0.00 in
21:42 55.0 °F 50.3 °F 29.86 in SW 1.4 mph 3.5 mph 84 % 0.00 in
21:47 54.8 °F 50.4 °F 29.86 in Calm     85 % 0.00 in
21:52 54.7 °F 50.3 °F 29.86 in South 0.8 mph 3.5 mph 85 % 0.00 in
21:57 54.5 °F 50.1 °F 29.86 in WSW 0.2 mph 3.5 mph 85 % 0.00 in
22:02 54.4 °F 50.0 °F 29.86 in WSW 0.1 mph 1.2 mph 85 % 0.00 in
22:07 54.2 °F 49.8 °F 29.86 in Calm   1.2 mph 85 % 0.00 in
22:12 54.1 °F 49.7 °F 29.87 in Calm   1.2 mph 85 % 0.00 in
22:17 53.9 °F 49.5 °F 29.86 in Calm   2.3 mph 85 % 0.00 in
22:22 53.8 °F 49.4 °F 29.86 in WSW 0.2 mph 1.0 mph 85 % 0.00 in
22:27 53.5 °F 49.1 °F 29.86 in South 2.2 mph 5.8 mph 85 % 0.00 in
22:32 53.2 °F 49.1 °F 29.86 in SSW 2.2 mph 4.6 mph 86 % 0.00 in
22:37 53.1 °F 49.0 °F 29.86 in SSW 0.7 mph 2.3 mph 86 % 0.00 in
22:42 53.0 °F 48.9 °F 29.86 in SW 2.3 mph 3.5 mph 86 % 0.00 in
22:47 52.9 °F 49.4 °F 29.86 in SW 1.9 mph 4.0 mph 88 % 0.00 in
22:52 52.9 °F 49.4 °F 29.87 in WNW 0.3 mph 3.5 mph 88 % 0.00 in
22:57 52.8 °F 49.3 °F 29.87 in SSW 3.1 mph 5.8 mph 88 % 0.00 in
23:02 52.9 °F 49.7 °F 29.87 in SW 2.8 mph 9.2 mph 89 % 0.00 in
23:07 53.1 °F 49.9 °F 29.87 in SW 5.0 mph 8.0 mph 89 % 0.00 in
23:12 53.2 °F 50.0 °F 29.87 in SW 2.8 mph 4.6 mph 89 % 0.00 in
23:17 53.3 °F 49.8 °F 29.87 in SSW 2.8 mph 6.0 mph 88 % 0.00 in
23:22 53.3 °F 49.8 °F 29.86 in SSW 2.7 mph 5.0 mph 88 % 0.00 in
23:27 53.3 °F 49.8 °F 29.86 in SSW 0.8 mph 3.5 mph 88 % 0.00 in
23:33 53.3 °F 49.8 °F 29.86 in SSW 1.4 mph 3.0 mph 88 % 0.00 in
23:38 53.3 °F 49.8 °F 29.86 in SW 1.1 mph 3.5 mph 88 % 0.00 in
23:43 53.4 °F 49.9 °F 29.87 in WSW 0.6 mph 3.5 mph 88 % 0.00 in
23:48 53.5 °F 50.0 °F 29.87 in SSW 0.1 mph 1.2 mph 88 % 0.00 in
23:53 53.5 °F 50.0 °F 29.87 in Calm   1.2 mph 88 % 0.00 in
23:58 53.5 °F 50.0 °F 29.88 in WNW 2.0 mph 4.6 mph 88 % 0.00 in
Crab Meadow Weather
Compliments of Weather Underground - 3 mb

Script developed by  Jim McMurry - jmcmurry@mwt.net Adapted for the template by  Wim van der Kuil - Leuven-Template.eu

Lightning: Lightning is equivalent to the electric power of 100 million light bulbs in your face.